sensor_id;sensor_type;location;lat;lon;timestamp;temperature;humidity
61016;DHT22;46902;52.920;6.536;2023-03-31T00:00:42;11.00;99.90
61016;DHT22;46902;52.920;6.536;2023-03-31T00:03:08;11.00;99.90
61016;DHT22;46902;52.920;6.536;2023-03-31T00:05:38;11.00;99.90
61016;DHT22;46902;52.920;6.536;2023-03-31T00:08:04;11.00;99.90
61016;DHT22;46902;52.920;6.536;2023-03-31T00:10:31;11.00;99.90
61016;DHT22;46902;52.920;6.536;2023-03-31T00:12:58;10.90;99.90
61016;DHT22;46902;52.920;6.536;2023-03-31T00:15:24;10.90;99.90
61016;DHT22;46902;52.920;6.536;2023-03-31T00:17:50;10.90;99.90
61016;DHT22;46902;52.920;6.536;2023-03-31T00:20:16;10.80;99.90
61016;DHT22;46902;52.920;6.536;2023-03-31T00:22:41;10.80;99.90
61016;DHT22;46902;52.920;6.536;2023-03-31T00:25:15;10.80;99.90
61016;DHT22;46902;52.920;6.536;2023-03-31T00:27:44;10.70;99.90
61016;DHT22;46902;52.920;6.536;2023-03-31T00:30:12;10.70;99.90
61016;DHT22;46902;52.920;6.536;2023-03-31T00:32:38;10.60;99.90
61016;DHT22;46902;52.920;6.536;2023-03-31T00:35:04;10.50;99.90
61016;DHT22;46902;52.920;6.536;2023-03-31T00:37:30;10.50;99.90
61016;DHT22;46902;52.920;6.536;2023-03-31T00:39:58;10.40;99.90
61016;DHT22;46902;52.920;6.536;2023-03-31T00:42:24;10.30;99.90
61016;DHT22;46902;52.920;6.536;2023-03-31T00:48:12;10.20;99.90
61016;DHT22;46902;52.920;6.536;2023-03-31T00:50:50;10.20;99.90
61016;DHT22;46902;52.920;6.536;2023-03-31T00:53:22;10.10;99.90
61016;DHT22;46902;52.920;6.536;2023-03-31T00:55:55;10.10;99.90
61016;DHT22;46902;52.920;6.536;2023-03-31T00:58:22;10.00;99.90
61016;DHT22;46902;52.920;6.536;2023-03-31T01:00:54;9.90;99.90
61016;DHT22;46902;52.920;6.536;2023-03-31T01:03:22;9.80;99.90
61016;DHT22;46902;52.920;6.536;2023-03-31T01:05:52;9.80;99.90
61016;DHT22;46902;52.920;6.536;2023-03-31T01:08:22;9.80;99.90
61016;DHT22;46902;52.920;6.536;2023-03-31T01:10:53;9.70;99.90
61016;DHT22;46902;52.920;6.536;2023-03-31T01:13:20;9.80;99.90
61016;DHT22;46902;52.920;6.536;2023-03-31T01:15:46;9.70;99.90
61016;DHT22;46902;52.920;6.536;2023-03-31T01:18:13;9.70;99.90
61016;DHT22;46902;52.920;6.536;2023-03-31T01:26:42;9.70;99.90
61016;DHT22;46902;52.920;6.536;2023-03-31T01:29:28;9.60;99.90
61016;DHT22;46902;52.920;6.536;2023-03-31T01:38:01;9.70;99.90
61016;DHT22;46902;52.920;6.536;2023-03-31T01:40:51;9.60;99.90
61016;DHT22;46902;52.920;6.536;2023-03-31T01:46:16;9.60;99.90
61016;DHT22;46902;52.920;6.536;2023-03-31T01:54:22;9.70;99.90
61016;DHT22;46902;52.920;6.536;2023-03-31T01:56:56;9.70;99.90
61016;DHT22;46902;52.920;6.536;2023-03-31T01:59:28;9.70;99.90
61016;DHT22;46902;52.920;6.536;2023-03-31T02:02:04;9.70;99.90
61016;DHT22;46902;52.920;6.536;2023-03-31T02:04:41;9.70;99.90
61016;DHT22;46902;52.920;6.536;2023-03-31T02:07:23;9.70;99.90
61016;DHT22;46902;52.920;6.536;2023-03-31T02:09:56;9.70;99.90
61016;DHT22;46902;52.920;6.536;2023-03-31T02:12:25;9.70;99.90
61016;DHT22;46902;52.920;6.536;2023-03-31T02:14:52;9.70;99.90
61016;DHT22;46902;52.920;6.536;2023-03-31T02:17:22;9.70;99.90
61016;DHT22;46902;52.920;6.536;2023-03-31T02:19:56;9.70;99.90
61016;DHT22;46902;52.920;6.536;2023-03-31T02:22:23;9.70;99.90
61016;DHT22;46902;52.920;6.536;2023-03-31T02:24:50;9.70;99.90
61016;DHT22;46902;52.920;6.536;2023-03-31T02:29:49;9.60;99.90
61016;DHT22;46902;52.920;6.536;2023-03-31T02:34:58;9.70;99.90
61016;DHT22;46902;52.920;6.536;2023-03-31T02:37:26;9.70;99.90
61016;DHT22;46902;52.920;6.536;2023-03-31T02:39:54;9.70;99.90
61016;DHT22;46902;52.920;6.536;2023-03-31T02:42:21;9.70;99.90
61016;DHT22;46902;52.920;6.536;2023-03-31T02:44:47;9.70;99.90
61016;DHT22;46902;52.920;6.536;2023-03-31T02:47:14;9.70;99.90
61016;DHT22;46902;52.920;6.536;2023-03-31T02:49:47;9.70;99.90
61016;DHT22;46902;52.920;6.536;2023-03-31T02:55:14;9.80;99.90
61016;DHT22;46902;52.920;6.536;2023-03-31T03:01:11;9.80;99.90
61016;DHT22;46902;52.920;6.536;2023-03-31T03:06:30;9.80;99.90
61016;DHT22;46902;52.920;6.536;2023-03-31T03:09:20;9.90;99.90
61016;DHT22;46902;52.920;6.536;2023-03-31T03:12:05;9.90;99.90
61016;DHT22;46902;52.920;6.536;2023-03-31T03:17:06;9.80;99.90
61016;DHT22;46902;52.920;6.536;2023-03-31T03:19:33;9.80;99.90
61016;DHT22;46902;52.920;6.536;2023-03-31T03:21:59;9.90;99.90
61016;DHT22;46902;52.920;6.536;2023-03-31T03:24:24;10.00;99.90
61016;DHT22;46902;52.920;6.536;2023-03-31T03:26:54;10.00;99.90
61016;DHT22;46902;52.920;6.536;2023-03-31T03:29:20;10.00;99.90
61016;DHT22;46902;52.920;6.536;2023-03-31T03:31:46;10.00;99.90
61016;DHT22;46902;52.920;6.536;2023-03-31T03:34:11;10.00;99.90
61016;DHT22;46902;52.920;6.536;2023-03-31T03:36:38;10.10;99.90
61016;DHT22;46902;52.920;6.536;2023-03-31T03:39:05;10.00;99.90
61016;DHT22;46902;52.920;6.536;2023-03-31T03:41:32;10.10;99.90
61016;DHT22;46902;52.920;6.536;2023-03-31T03:43:58;10.10;99.90
61016;DHT22;46902;52.920;6.536;2023-03-31T03:46:24;10.10;99.90
61016;DHT22;46902;52.920;6.536;2023-03-31T03:48:50;10.10;99.90
61016;DHT22;46902;52.920;6.536;2023-03-31T03:51:16;10.10;99.90
61016;DHT22;46902;52.920;6.536;2023-03-31T03:53:41;10.10;99.90
61016;DHT22;46902;52.920;6.536;2023-03-31T03:56:07;10.10;99.90
61016;DHT22;46902;52.920;6.536;2023-03-31T03:58:33;10.00;99.90
61016;DHT22;46902;52.920;6.536;2023-03-31T04:00:59;10.00;99.90
61016;DHT22;46902;52.920;6.536;2023-03-31T04:03:24;9.90;99.90
61016;DHT22;46902;52.920;6.536;2023-03-31T04:05:50;10.00;99.90
61016;DHT22;46902;52.920;6.536;2023-03-31T04:08:17;10.00;99.90
61016;DHT22;46902;52.920;6.536;2023-03-31T04:10:44;10.00;99.90
61016;DHT22;46902;52.920;6.536;2023-03-31T04:13:11;9.90;99.90
61016;DHT22;46902;52.920;6.536;2023-03-31T04:15:36;9.90;99.90
61016;DHT22;46902;52.920;6.536;2023-03-31T04:18:02;10.00;99.90
61016;DHT22;46902;52.920;6.536;2023-03-31T04:20:28;9.90;99.90
61016;DHT22;46902;52.920;6.536;2023-03-31T04:22:55;9.90;99.90
61016;DHT22;46902;52.920;6.536;2023-03-31T04:25:21;9.90;99.90
61016;DHT22;46902;52.920;6.536;2023-03-31T04:27:49;9.90;99.90
61016;DHT22;46902;52.920;6.536;2023-03-31T04:30:18;10.00;99.90
61016;DHT22;46902;52.920;6.536;2023-03-31T04:32:56;9.90;99.90
61016;DHT22;46902;52.920;6.536;2023-03-31T04:35:23;10.00;99.90
61016;DHT22;46902;52.920;6.536;2023-03-31T04:37:51;10.00;99.90
61016;DHT22;46902;52.920;6.536;2023-03-31T04:40:23;10.00;99.90
61016;DHT22;46902;52.920;6.536;2023-03-31T04:42:49;10.10;99.90
61016;DHT22;46902;52.920;6.536;2023-03-31T04:45:15;10.00;99.90
61016;DHT22;46902;52.920;6.536;2023-03-31T04:47:41;10.20;99.90
61016;DHT22;46902;52.920;6.536;2023-03-31T04:50:08;10.10;99.90
61016;DHT22;46902;52.920;6.536;2023-03-31T04:52:36;10.10;99.90
61016;DHT22;46902;52.920;6.536;2023-03-31T04:55:01;10.20;99.90
61016;DHT22;46902;52.920;6.536;2023-03-31T04:57:27;10.10;99.90
61016;DHT22;46902;52.920;6.536;2023-03-31T04:59:53;10.10;99.90
61016;DHT22;46902;52.920;6.536;2023-03-31T05:02:19;10.20;99.90
61016;DHT22;46902;52.920;6.536;2023-03-31T05:04:51;10.20;99.90
61016;DHT22;46902;52.920;6.536;2023-03-31T05:07:18;10.20;99.90
61016;DHT22;46902;52.920;6.536;2023-03-31T05:09:44;10.20;99.90
61016;DHT22;46902;52.920;6.536;2023-03-31T05:12:10;10.20;99.90
61016;DHT22;46902;52.920;6.536;2023-03-31T05:14:36;10.10;99.90
61016;DHT22;46902;52.920;6.536;2023-03-31T05:17:02;10.20;99.90
61016;DHT22;46902;52.920;6.536;2023-03-31T05:19:27;10.20;99.90
61016;DHT22;46902;52.920;6.536;2023-03-31T05:21:53;10.20;99.90
61016;DHT22;46902;52.920;6.536;2023-03-31T05:24:18;10.20;99.90
61016;DHT22;46902;52.920;6.536;2023-03-31T05:26:45;10.20;99.90
61016;DHT22;46902;52.920;6.536;2023-03-31T05:29:19;10.20;99.90
61016;DHT22;46902;52.920;6.536;2023-03-31T05:31:45;10.10;99.90
61016;DHT22;46902;52.920;6.536;2023-03-31T05:34:11;10.20;99.90
61016;DHT22;46902;52.920;6.536;2023-03-31T05:36:37;10.10;99.90
61016;DHT22;46902;52.920;6.536;2023-03-31T05:39:06;10.20;99.90
61016;DHT22;46902;52.920;6.536;2023-03-31T05:41:33;10.20;99.90
61016;DHT22;46902;52.920;6.536;2023-03-31T05:43:58;10.10;99.90
61016;DHT22;46902;52.920;6.536;2023-03-31T05:46:24;10.10;99.90
61016;DHT22;46902;52.920;6.536;2023-03-31T05:48:54;10.10;99.90
61016;DHT22;46902;52.920;6.536;2023-03-31T05:51:21;10.20;99.90
61016;DHT22;46902;52.920;6.536;2023-03-31T05:53:46;10.20;99.90
61016;DHT22;46902;52.920;6.536;2023-03-31T05:56:12;10.10;99.90
61016;DHT22;46902;52.920;6.536;2023-03-31T05:58:38;10.10;99.90
61016;DHT22;46902;52.920;6.536;2023-03-31T06:03:32;10.10;99.90
61016;DHT22;46902;52.920;6.536;2023-03-31T06:05:58;10.10;99.90
61016;DHT22;46902;52.920;6.536;2023-03-31T06:08:23;10.10;99.90
61016;DHT22;46902;52.920;6.536;2023-03-31T06:10:49;10.10;99.90
61016;DHT22;46902;52.920;6.536;2023-03-31T06:13:15;10.10;99.90
61016;DHT22;46902;52.920;6.536;2023-03-31T06:15:41;10.10;99.90
61016;DHT22;46902;52.920;6.536;2023-03-31T06:18:06;10.10;99.90
61016;DHT22;46902;52.920;6.536;2023-03-31T06:20:35;10.20;99.90
61016;DHT22;46902;52.920;6.536;2023-03-31T06:23:01;10.10;99.90
61016;DHT22;46902;52.920;6.536;2023-03-31T06:25:26;10.10;99.90
61016;DHT22;46902;52.920;6.536;2023-03-31T06:27:52;10.10;99.90
61016;DHT22;46902;52.920;6.536;2023-03-31T06:30:18;10.10;99.90
61016;DHT22;46902;52.920;6.536;2023-03-31T06:32:43;10.20;99.90
61016;DHT22;46902;52.920;6.536;2023-03-31T06:35:09;10.20;99.90
61016;DHT22;46902;52.920;6.536;2023-03-31T06:37:35;10.20;99.90
61016;DHT22;46902;52.920;6.536;2023-03-31T06:40:00;10.20;99.90
61016;DHT22;46902;52.920;6.536;2023-03-31T06:42:26;10.20;99.90
61016;DHT22;46902;52.920;6.536;2023-03-31T06:44:52;10.20;99.90
61016;DHT22;46902;52.920;6.536;2023-03-31T06:47:17;10.20;99.90
61016;DHT22;46902;52.920;6.536;2023-03-31T06:49:43;10.10;99.90
61016;DHT22;46902;52.920;6.536;2023-03-31T06:52:09;10.20;99.90
61016;DHT22;46902;52.920;6.536;2023-03-31T06:54:34;10.20;99.90
61016;DHT22;46902;52.920;6.536;2023-03-31T06:57:00;10.20;99.90
61016;DHT22;46902;52.920;6.536;2023-03-31T06:59:25;10.10;99.90
61016;DHT22;46902;52.920;6.536;2023-03-31T07:01:51;10.10;99.90
61016;DHT22;46902;52.920;6.536;2023-03-31T07:04:16;10.20;99.90
61016;DHT22;46902;52.920;6.536;2023-03-31T07:06:42;10.20;99.90
61016;DHT22;46902;52.920;6.536;2023-03-31T07:09:08;10.20;99.90
61016;DHT22;46902;52.920;6.536;2023-03-31T07:11:33;10.20;99.90
61016;DHT22;46902;52.920;6.536;2023-03-31T07:13:59;10.20;99.90
61016;DHT22;46902;52.920;6.536;2023-03-31T07:16:24;10.30;99.90
61016;DHT22;46902;52.920;6.536;2023-03-31T07:18:50;10.30;99.90
61016;DHT22;46902;52.920;6.536;2023-03-31T07:21:19;10.30;99.90
61016;DHT22;46902;52.920;6.536;2023-03-31T07:23:44;10.30;99.90
61016;DHT22;46902;52.920;6.536;2023-03-31T07:26:10;10.30;99.90
61016;DHT22;46902;52.920;6.536;2023-03-31T07:28:36;10.30;99.90
61016;DHT22;46902;52.920;6.536;2023-03-31T07:31:01;10.30;99.90
61016;DHT22;46902;52.920;6.536;2023-03-31T07:33:27;10.40;99.90
61016;DHT22;46902;52.920;6.536;2023-03-31T07:35:52;10.30;99.90
61016;DHT22;46902;52.920;6.536;2023-03-31T07:38:18;10.30;99.90
61016;DHT22;46902;52.920;6.536;2023-03-31T07:40:44;10.30;99.90
61016;DHT22;46902;52.920;6.536;2023-03-31T07:43:10;10.30;99.90
61016;DHT22;46902;52.920;6.536;2023-03-31T07:45:39;10.30;99.90
61016;DHT22;46902;52.920;6.536;2023-03-31T07:48:05;10.30;99.90
61016;DHT22;46902;52.920;6.536;2023-03-31T07:50:30;10.30;99.90
61016;DHT22;46902;52.920;6.536;2023-03-31T07:52:56;10.30;99.90
61016;DHT22;46902;52.920;6.536;2023-03-31T07:55:22;10.30;99.90
61016;DHT22;46902;52.920;6.536;2023-03-31T07:57:48;10.20;99.90
61016;DHT22;46902;52.920;6.536;2023-03-31T08:00:16;10.30;99.90
61016;DHT22;46902;52.920;6.536;2023-03-31T08:02:42;10.30;99.90
61016;DHT22;46902;52.920;6.536;2023-03-31T08:05:09;10.40;99.90
61016;DHT22;46902;52.920;6.536;2023-03-31T08:07:37;10.30;99.90
61016;DHT22;46902;52.920;6.536;2023-03-31T08:10:05;10.30;99.90
61016;DHT22;46902;52.920;6.536;2023-03-31T08:12:30;10.30;99.90
61016;DHT22;46902;52.920;6.536;2023-03-31T08:14:56;10.30;99.90
61016;DHT22;46902;52.920;6.536;2023-03-31T08:17:22;10.30;99.90
61016;DHT22;46902;52.920;6.536;2023-03-31T08:19:47;10.40;99.90
61016;DHT22;46902;52.920;6.536;2023-03-31T08:22:14;10.40;99.90
61016;DHT22;46902;52.920;6.536;2023-03-31T08:24:40;10.40;99.90
61016;DHT22;46902;52.920;6.536;2023-03-31T08:27:05;10.40;99.90
61016;DHT22;46902;52.920;6.536;2023-03-31T08:29:31;10.50;99.90
61016;DHT22;46902;52.920;6.536;2023-03-31T08:31:56;10.50;99.90
61016;DHT22;46902;52.920;6.536;2023-03-31T08:34:22;10.50;99.90
61016;DHT22;46902;52.920;6.536;2023-03-31T08:36:47;10.60;99.90
61016;DHT22;46902;52.920;6.536;2023-03-31T08:39:13;10.60;99.90
61016;DHT22;46902;52.920;6.536;2023-03-31T08:41:50;10.60;99.90
61016;DHT22;46902;52.920;6.536;2023-03-31T08:44:31;10.50;99.90
61016;DHT22;46902;52.920;6.536;2023-03-31T08:47:01;10.60;99.90
61016;DHT22;46902;52.920;6.536;2023-03-31T08:49:37;10.60;99.90
61016;DHT22;46902;52.920;6.536;2023-03-31T08:52:06;10.60;99.90
61016;DHT22;46902;52.920;6.536;2023-03-31T08:54:40;10.60;99.90
61016;DHT22;46902;52.920;6.536;2023-03-31T08:57:32;10.60;99.90
61016;DHT22;46902;52.920;6.536;2023-03-31T09:00:00;10.60;99.90
61016;DHT22;46902;52.920;6.536;2023-03-31T09:10:44;10.70;99.90
61016;DHT22;46902;52.920;6.536;2023-03-31T09:13:26;10.80;99.90
61016;DHT22;46902;52.920;6.536;2023-03-31T09:16:20;10.80;99.90
61016;DHT22;46902;52.920;6.536;2023-03-31T09:18:49;10.80;99.90
61016;DHT22;46902;52.920;6.536;2023-03-31T09:26:33;10.80;99.90
61016;DHT22;46902;52.920;6.536;2023-03-31T09:29:01;10.90;99.90
61016;DHT22;46902;52.920;6.536;2023-03-31T09:31:28;11.00;99.90
61016;DHT22;46902;52.920;6.536;2023-03-31T09:33:59;11.00;99.90
61016;DHT22;46902;52.920;6.536;2023-03-31T09:36:26;11.10;99.90
61016;DHT22;46902;52.920;6.536;2023-03-31T09:38:52;11.00;99.90
61016;DHT22;46902;52.920;6.536;2023-03-31T09:41:17;11.10;99.90
61016;DHT22;46902;52.920;6.536;2023-03-31T09:43:44;11.10;99.90
61016;DHT22;46902;52.920;6.536;2023-03-31T09:48:54;11.10;99.90
61016;DHT22;46902;52.920;6.536;2023-03-31T09:51:26;11.10;99.90
61016;DHT22;46902;52.920;6.536;2023-03-31T09:54:02;11.00;99.90
61016;DHT22;46902;52.920;6.536;2023-03-31T09:56:49;11.00;99.90
61016;DHT22;46902;52.920;6.536;2023-03-31T09:59:31;11.00;99.90
61016;DHT22;46902;52.920;6.536;2023-03-31T10:02:01;11.00;99.90
61016;DHT22;46902;52.920;6.536;2023-03-31T10:04:30;11.00;99.90
61016;DHT22;46902;52.920;6.536;2023-03-31T10:06:58;11.00;99.90
61016;DHT22;46902;52.920;6.536;2023-03-31T10:09:31;11.10;99.90
61016;DHT22;46902;52.920;6.536;2023-03-31T10:12:08;11.20;99.90
61016;DHT22;46902;52.920;6.536;2023-03-31T10:14:44;11.20;99.90
61016;DHT22;46902;52.920;6.536;2023-03-31T10:17:14;11.40;99.90
61016;DHT22;46902;52.920;6.536;2023-03-31T10:19:50;11.30;99.90
61016;DHT22;46902;52.920;6.536;2023-03-31T10:24:46;11.40;99.90
61016;DHT22;46902;52.920;6.536;2023-03-31T10:27:24;11.40;99.90
61016;DHT22;46902;52.920;6.536;2023-03-31T10:29:52;11.50;99.90
61016;DHT22;46902;52.920;6.536;2023-03-31T10:32:32;11.70;99.90
61016;DHT22;46902;52.920;6.536;2023-03-31T10:35:04;11.80;99.90
61016;DHT22;46902;52.920;6.536;2023-03-31T10:37:31;11.90;99.90
61016;DHT22;46902;52.920;6.536;2023-03-31T10:40:01;11.80;99.90
61016;DHT22;46902;52.920;6.536;2023-03-31T10:42:31;11.90;99.90
61016;DHT22;46902;52.920;6.536;2023-03-31T10:45:35;12.00;99.90
61016;DHT22;46902;52.920;6.536;2023-03-31T10:48:02;12.20;99.90
61016;DHT22;46902;52.920;6.536;2023-03-31T10:50:30;12.20;99.90
61016;DHT22;46902;52.920;6.536;2023-03-31T10:53:11;12.20;99.90
61016;DHT22;46902;52.920;6.536;2023-03-31T10:56:12;12.30;99.90
61016;DHT22;46902;52.920;6.536;2023-03-31T11:06:56;12.20;99.90
61016;DHT22;46902;52.920;6.536;2023-03-31T11:12:28;12.00;99.90
61016;DHT22;46902;52.920;6.536;2023-03-31T11:15:20;11.90;99.90
61016;DHT22;46902;52.920;6.536;2023-03-31T11:18:05;11.80;99.90
61016;DHT22;46902;52.920;6.536;2023-03-31T11:26:03;11.80;99.90
61016;DHT22;46902;52.920;6.536;2023-03-31T11:39:15;11.80;99.90
61016;DHT22;46902;52.920;6.536;2023-03-31T11:41:49;11.80;99.90
61016;DHT22;46902;52.920;6.536;2023-03-31T11:44:18;12.00;99.90
61016;DHT22;46902;52.920;6.536;2023-03-31T11:46:54;12.10;99.90
61016;DHT22;46902;52.920;6.536;2023-03-31T11:49:31;12.20;99.90
61016;DHT22;46902;52.920;6.536;2023-03-31T11:57:44;12.40;99.90
61016;DHT22;46902;52.920;6.536;2023-03-31T12:00:20;12.30;99.90
61016;DHT22;46902;52.920;6.536;2023-03-31T12:05:46;12.40;99.90
61016;DHT22;46902;52.920;6.536;2023-03-31T12:08:40;12.40;99.90
61016;DHT22;46902;52.920;6.536;2023-03-31T12:11:15;12.40;99.90
61016;DHT22;46902;52.920;6.536;2023-03-31T12:13:51;12.50;99.90
61016;DHT22;46902;52.920;6.536;2023-03-31T12:16:22;12.60;99.90
61016;DHT22;46902;52.920;6.536;2023-03-31T12:21:22;12.70;99.90
61016;DHT22;46902;52.920;6.536;2023-03-31T12:23:49;12.60;99.90
61016;DHT22;46902;52.920;6.536;2023-03-31T12:26:39;12.60;99.90
61016;DHT22;46902;52.920;6.536;2023-03-31T12:29:28;12.70;99.90
61016;DHT22;46902;52.920;6.536;2023-03-31T12:31:57;12.70;99.90
61016;DHT22;46902;52.920;6.536;2023-03-31T12:34:25;12.70;99.90
61016;DHT22;46902;52.920;6.536;2023-03-31T12:36:59;12.90;99.90
61016;DHT22;46902;52.920;6.536;2023-03-31T12:48:38;13.00;99.90
61016;DHT22;46902;52.920;6.536;2023-03-31T12:51:22;13.00;99.90
61016;DHT22;46902;52.920;6.536;2023-03-31T12:56:24;12.90;99.90
61016;DHT22;46902;52.920;6.536;2023-03-31T12:58:50;12.80;99.90
61016;DHT22;46902;52.920;6.536;2023-03-31T13:01:19;12.80;99.90
61016;DHT22;46902;52.920;6.536;2023-03-31T13:04:24;12.80;99.90
61016;DHT22;46902;52.920;6.536;2023-03-31T13:11:39;12.50;99.90
61016;DHT22;46902;52.920;6.536;2023-03-31T13:14:25;12.50;99.90
61016;DHT22;46902;52.920;6.536;2023-03-31T13:17:32;12.40;99.90
61016;DHT22;46902;52.920;6.536;2023-03-31T13:20:23;12.50;99.90
61016;DHT22;46902;52.920;6.536;2023-03-31T13:22:59;12.60;99.90
61016;DHT22;46902;52.920;6.536;2023-03-31T13:27:54;12.60;99.90
61016;DHT22;46902;52.920;6.536;2023-03-31T13:33:19;12.60;99.90
61016;DHT22;46902;52.920;6.536;2023-03-31T13:35:51;12.60;99.90
61016;DHT22;46902;52.920;6.536;2023-03-31T13:41:18;12.60;99.90
61016;DHT22;46902;52.920;6.536;2023-03-31T13:50:02;12.00;99.90
61016;DHT22;46902;52.920;6.536;2023-03-31T13:58:28;11.90;99.90
61016;DHT22;46902;52.920;6.536;2023-03-31T14:01:29;11.90;99.90
61016;DHT22;46902;52.920;6.536;2023-03-31T14:04:10;12.00;99.90
61016;DHT22;46902;52.920;6.536;2023-03-31T14:06:54;12.10;99.90
61016;DHT22;46902;52.920;6.536;2023-03-31T14:09:31;12.20;99.90
61016;DHT22;46902;52.920;6.536;2023-03-31T14:12:21;12.30;99.90
61016;DHT22;46902;52.920;6.536;2023-03-31T14:14:51;12.50;99.90
61016;DHT22;46902;52.920;6.536;2023-03-31T14:17:25;12.50;99.90
61016;DHT22;46902;52.920;6.536;2023-03-31T14:26:04;12.70;99.90
61016;DHT22;46902;52.920;6.536;2023-03-31T14:34:16;12.60;99.90
61016;DHT22;46902;52.920;6.536;2023-03-31T14:39:20;12.50;99.90
61016;DHT22;46902;52.920;6.536;2023-03-31T14:41:52;12.40;99.90
61016;DHT22;46902;52.920;6.536;2023-03-31T14:44:18;12.40;99.90
61016;DHT22;46902;52.920;6.536;2023-03-31T14:46:45;12.40;99.90
61016;DHT22;46902;52.920;6.536;2023-03-31T14:49:37;12.30;99.90
61016;DHT22;46902;52.920;6.536;2023-03-31T14:52:19;12.20;99.90
61016;DHT22;46902;52.920;6.536;2023-03-31T14:54:47;12.20;99.90
61016;DHT22;46902;52.920;6.536;2023-03-31T14:57:25;12.20;99.90
61016;DHT22;46902;52.920;6.536;2023-03-31T14:59:52;12.30;99.90
61016;DHT22;46902;52.920;6.536;2023-03-31T15:02:29;12.30;99.90
61016;DHT22;46902;52.920;6.536;2023-03-31T15:04:56;12.30;99.90
61016;DHT22;46902;52.920;6.536;2023-03-31T15:07:23;12.40;99.90
61016;DHT22;46902;52.920;6.536;2023-03-31T15:09:49;12.40;99.90
61016;DHT22;46902;52.920;6.536;2023-03-31T15:12:18;12.40;99.90
61016;DHT22;46902;52.920;6.536;2023-03-31T15:14:49;12.40;99.90
61016;DHT22;46902;52.920;6.536;2023-03-31T15:17:27;12.50;99.90
61016;DHT22;46902;52.920;6.536;2023-03-31T15:19:58;12.50;99.90
61016;DHT22;46902;52.920;6.536;2023-03-31T15:22:26;12.40;99.90
61016;DHT22;46902;52.920;6.536;2023-03-31T15:24:53;12.50;99.90
61016;DHT22;46902;52.920;6.536;2023-03-31T15:27:37;12.50;99.90
61016;DHT22;46902;52.920;6.536;2023-03-31T15:30:08;12.60;99.90
61016;DHT22;46902;52.920;6.536;2023-03-31T15:32:38;12.60;99.90
61016;DHT22;46902;52.920;6.536;2023-03-31T15:35:05;12.60;99.90
61016;DHT22;46902;52.920;6.536;2023-03-31T15:37:41;12.60;99.90
61016;DHT22;46902;52.920;6.536;2023-03-31T15:40:24;12.70;99.90
61016;DHT22;46902;52.920;6.536;2023-03-31T15:43:18;12.80;99.90
61016;DHT22;46902;52.920;6.536;2023-03-31T15:45:52;12.80;99.90
61016;DHT22;46902;52.920;6.536;2023-03-31T15:50:47;12.70;99.90
61016;DHT22;46902;52.920;6.536;2023-03-31T15:55:53;12.60;99.90
61016;DHT22;46902;52.920;6.536;2023-03-31T15:58:23;12.60;99.90
61016;DHT22;46902;52.920;6.536;2023-03-31T16:01:03;12.40;99.90
61016;DHT22;46902;52.920;6.536;2023-03-31T16:03:34;12.30;99.90
61016;DHT22;46902;52.920;6.536;2023-03-31T16:06:18;12.10;99.90
61016;DHT22;46902;52.920;6.536;2023-03-31T16:08:50;12.00;99.90
61016;DHT22;46902;52.920;6.536;2023-03-31T16:11:25;11.90;99.90
61016;DHT22;46902;52.920;6.536;2023-03-31T16:13:55;11.90;99.90
61016;DHT22;46902;52.920;6.536;2023-03-31T16:16:24;11.90;99.90
61016;DHT22;46902;52.920;6.536;2023-03-31T16:19:05;11.80;99.90
61016;DHT22;46902;52.920;6.536;2023-03-31T16:21:53;11.90;99.90
61016;DHT22;46902;52.920;6.536;2023-03-31T16:24:32;11.80;99.90
61016;DHT22;46902;52.920;6.536;2023-03-31T16:27:01;11.80;99.90
61016;DHT22;46902;52.920;6.536;2023-03-31T16:29:31;11.80;99.90
61016;DHT22;46902;52.920;6.536;2023-03-31T16:34:57;11.70;99.90
61016;DHT22;46902;52.920;6.536;2023-03-31T16:37:23;11.70;99.90
61016;DHT22;46902;52.920;6.536;2023-03-31T16:39:49;11.70;99.90
61016;DHT22;46902;52.920;6.536;2023-03-31T16:42:14;11.60;99.90
61016;DHT22;46902;52.920;6.536;2023-03-31T16:44:40;11.70;99.90
61016;DHT22;46902;52.920;6.536;2023-03-31T16:47:06;11.70;99.90
61016;DHT22;46902;52.920;6.536;2023-03-31T16:49:31;11.80;99.90
61016;DHT22;46902;52.920;6.536;2023-03-31T16:51:57;11.80;99.90
61016;DHT22;46902;52.920;6.536;2023-03-31T16:54:23;11.70;99.90
61016;DHT22;46902;52.920;6.536;2023-03-31T16:56:48;11.70;99.90
61016;DHT22;46902;52.920;6.536;2023-03-31T16:59:14;11.70;99.90
61016;DHT22;46902;52.920;6.536;2023-03-31T17:01:40;11.60;99.90
61016;DHT22;46902;52.920;6.536;2023-03-31T17:04:06;11.60;99.90
61016;DHT22;46902;52.920;6.536;2023-03-31T17:06:32;11.60;99.90
61016;DHT22;46902;52.920;6.536;2023-03-31T17:08:57;11.50;99.90
61016;DHT22;46902;52.920;6.536;2023-03-31T17:11:23;11.50;99.90
61016;DHT22;46902;52.920;6.536;2023-03-31T17:13:49;11.50;99.90
61016;DHT22;46902;52.920;6.536;2023-03-31T17:16:15;11.50;99.90
61016;DHT22;46902;52.920;6.536;2023-03-31T17:18:42;11.50;99.90
61016;DHT22;46902;52.920;6.536;2023-03-31T17:21:10;11.50;99.90
61016;DHT22;46902;52.920;6.536;2023-03-31T17:23:37;11.50;99.90
61016;DHT22;46902;52.920;6.536;2023-03-31T17:26:04;11.50;99.90
61016;DHT22;46902;52.920;6.536;2023-03-31T17:28:31;11.50;99.90
61016;DHT22;46902;52.920;6.536;2023-03-31T17:30:56;11.50;99.90
61016;DHT22;46902;52.920;6.536;2023-03-31T17:33:23;11.50;99.90
61016;DHT22;46902;52.920;6.536;2023-03-31T17:35:49;11.40;99.90
61016;DHT22;46902;52.920;6.536;2023-03-31T17:38:15;11.40;99.90
61016;DHT22;46902;52.920;6.536;2023-03-31T17:40:43;11.40;99.90
61016;DHT22;46902;52.920;6.536;2023-03-31T17:43:09;11.40;99.90
61016;DHT22;46902;52.920;6.536;2023-03-31T17:45:35;11.40;99.90
61016;DHT22;46902;52.920;6.536;2023-03-31T17:48:01;11.40;99.90
61016;DHT22;46902;52.920;6.536;2023-03-31T17:50:26;11.40;99.90
61016;DHT22;46902;52.920;6.536;2023-03-31T17:52:52;11.40;99.90
61016;DHT22;46902;52.920;6.536;2023-03-31T17:55:18;11.40;99.90
61016;DHT22;46902;52.920;6.536;2023-03-31T17:57:44;11.40;99.90
61016;DHT22;46902;52.920;6.536;2023-03-31T18:00:11;11.40;99.90
61016;DHT22;46902;52.920;6.536;2023-03-31T18:02:40;11.30;99.90
61016;DHT22;46902;52.920;6.536;2023-03-31T18:05:06;11.40;99.90
61016;DHT22;46902;52.920;6.536;2023-03-31T18:07:33;11.40;99.90
61016;DHT22;46902;52.920;6.536;2023-03-31T18:10:00;11.40;99.90
61016;DHT22;46902;52.920;6.536;2023-03-31T18:12:26;11.40;99.90
61016;DHT22;46902;52.920;6.536;2023-03-31T18:14:53;11.40;99.90
61016;DHT22;46902;52.920;6.536;2023-03-31T18:17:20;11.40;99.90
61016;DHT22;46902;52.920;6.536;2023-03-31T18:19:45;11.40;99.90
61016;DHT22;46902;52.920;6.536;2023-03-31T18:22:11;11.40;99.90
61016;DHT22;46902;52.920;6.536;2023-03-31T18:24:37;11.30;99.90
61016;DHT22;46902;52.920;6.536;2023-03-31T18:27:03;11.30;99.90
61016;DHT22;46902;52.920;6.536;2023-03-31T18:29:29;11.30;99.90